sensor_id;sensor_type;location;lat;lon;timestamp;P1;durP1;ratioP1;P2;durP2;ratioP2
5904;SDS011;2978;42.012;24.880;2022-12-10T00:01:42;32.63;;;19.70;;
5904;SDS011;2978;42.012;24.880;2022-12-10T00:04:09;34.83;;;20.90;;
5904;SDS011;2978;42.012;24.880;2022-12-10T00:06:35;40.10;;;21.00;;
5904;SDS011;2978;42.012;24.880;2022-12-10T00:09:03;37.13;;;20.70;;
5904;SDS011;2978;42.012;24.880;2022-12-10T00:11:30;38.60;;;21.47;;
5904;SDS011;2978;42.012;24.880;2022-12-10T00:13:56;39.90;;;20.87;;
5904;SDS011;2978;42.012;24.880;2022-12-10T00:16:24;40.83;;;21.87;;
5904;SDS011;2978;42.012;24.880;2022-12-10T00:18:51;40.33;;;23.13;;
5904;SDS011;2978;42.012;24.880;2022-12-10T00:21:18;44.97;;;22.97;;
5904;SDS011;2978;42.012;24.880;2022-12-10T00:23:45;42.00;;;24.30;;
5904;SDS011;2978;42.012;24.880;2022-12-10T00:26:12;46.47;;;23.83;;
5904;SDS011;2978;42.012;24.880;2022-12-10T00:28:43;39.83;;;22.50;;
5904;SDS011;2978;42.012;24.880;2022-12-10T00:31:10;44.13;;;24.43;;
5904;SDS011;2978;42.012;24.880;2022-12-10T00:33:38;47.40;;;26.60;;
5904;SDS011;2978;42.012;24.880;2022-12-10T00:36:04;49.90;;;26.77;;
5904;SDS011;2978;42.012;24.880;2022-12-10T00:38:34;49.27;;;26.23;;
5904;SDS011;2978;42.012;24.880;2022-12-10T00:41:01;53.40;;;28.80;;
5904;SDS011;2978;42.012;24.880;2022-12-10T00:43:27;59.13;;;28.13;;
5904;SDS011;2978;42.012;24.880;2022-12-10T00:45:53;52.00;;;29.27;;
5904;SDS011;2978;42.012;24.880;2022-12-10T00:48:18;61.70;;;31.40;;
5904;SDS011;2978;42.012;24.880;2022-12-10T00:50:53;64.17;;;33.40;;
5904;SDS011;2978;42.012;24.880;2022-12-10T00:53:20;62.47;;;34.60;;
5904;SDS011;2978;42.012;24.880;2022-12-10T00:55:45;68.80;;;33.03;;
5904;SDS011;2978;42.012;24.880;2022-12-10T00:58:11;62.07;;;31.50;;
5904;SDS011;2978;42.012;24.880;2022-12-10T01:00:36;68.57;;;33.83;;
5904;SDS011;2978;42.012;24.880;2022-12-10T01:03:02;74.80;;;36.00;;
5904;SDS011;2978;42.012;24.880;2022-12-10T01:05:27;66.93;;;32.77;;
5904;SDS011;2978;42.012;24.880;2022-12-10T01:07:53;69.80;;;32.10;;
5904;SDS011;2978;42.012;24.880;2022-12-10T01:10:18;81.27;;;35.87;;
5904;SDS011;2978;42.012;24.880;2022-12-10T01:12:44;66.87;;;32.07;;
5904;SDS011;2978;42.012;24.880;2022-12-10T01:15:10;68.93;;;34.50;;
5904;SDS011;2978;42.012;24.880;2022-12-10T01:17:36;79.07;;;35.77;;
5904;SDS011;2978;42.012;24.880;2022-12-10T01:20:01;75.40;;;35.43;;
5904;SDS011;2978;42.012;24.880;2022-12-10T01:22:27;81.20;;;36.53;;
5904;SDS011;2978;42.012;24.880;2022-12-10T01:24:53;84.17;;;37.53;;
5904;SDS011;2978;42.012;24.880;2022-12-10T01:27:18;72.93;;;34.00;;
5904;SDS011;2978;42.012;24.880;2022-12-10T01:29:44;83.13;;;34.77;;
5904;SDS011;2978;42.012;24.880;2022-12-10T01:32:09;72.13;;;33.30;;
5904;SDS011;2978;42.012;24.880;2022-12-10T01:34:35;75.30;;;34.50;;
5904;SDS011;2978;42.012;24.880;2022-12-10T01:37:01;85.50;;;35.53;;
5904;SDS011;2978;42.012;24.880;2022-12-10T01:39:26;80.80;;;34.13;;
5904;SDS011;2978;42.012;24.880;2022-12-10T01:41:55;69.87;;;32.50;;
5904;SDS011;2978;42.012;24.880;2022-12-10T01:46:49;70.50;;;32.60;;
5904;SDS011;2978;42.012;24.880;2022-12-10T01:49:17;74.10;;;33.70;;
5904;SDS011;2978;42.012;24.880;2022-12-10T01:51:49;72.93;;;34.67;;
5904;SDS011;2978;42.012;24.880;2022-12-10T01:54:22;88.70;;;35.40;;
5904;SDS011;2978;42.012;24.880;2022-12-10T01:56:50;61.60;;;31.77;;
5904;SDS011;2978;42.012;24.880;2022-12-10T01:59:22;67.30;;;31.77;;
5904;SDS011;2978;42.012;24.880;2022-12-10T02:01:57;70.03;;;33.10;;
5904;SDS011;2978;42.012;24.880;2022-12-10T02:04:44;66.03;;;33.30;;
5904;SDS011;2978;42.012;24.880;2022-12-10T02:07:13;69.27;;;33.10;;
5904;SDS011;2978;42.012;24.880;2022-12-10T02:15:36;90.10;;;34.47;;
5904;SDS011;2978;42.012;24.880;2022-12-10T02:18:27;72.33;;;31.03;;
5904;SDS011;2978;42.012;24.880;2022-12-10T02:21:00;82.70;;;35.30;;
5904;SDS011;2978;42.012;24.880;2022-12-10T02:23:35;64.80;;;33.03;;
5904;SDS011;2978;42.012;24.880;2022-12-10T02:31:07;77.30;;;34.10;;
5904;SDS011;2978;42.012;24.880;2022-12-10T02:33:37;77.97;;;33.50;;
5904;SDS011;2978;42.012;24.880;2022-12-10T02:36:07;75.73;;;34.50;;
5904;SDS011;2978;42.012;24.880;2022-12-10T02:38:35;81.17;;;34.07;;
5904;SDS011;2978;42.012;24.880;2022-12-10T02:41:05;75.83;;;32.00;;
5904;SDS011;2978;42.012;24.880;2022-12-10T02:43:33;70.17;;;33.70;;
5904;SDS011;2978;42.012;24.880;2022-12-10T02:45:59;91.93;;;36.00;;
5904;SDS011;2978;42.012;24.880;2022-12-10T02:48:28;92.37;;;35.60;;
5904;SDS011;2978;42.012;24.880;2022-12-10T02:50:56;82.20;;;36.00;;
5904;SDS011;2978;42.012;24.880;2022-12-10T02:53:21;68.27;;;33.03;;
5904;SDS011;2978;42.012;24.880;2022-12-10T03:04:05;68.13;;;31.00;;
5904;SDS011;2978;42.012;24.880;2022-12-10T03:06:40;62.00;;;29.63;;
5904;SDS011;2978;42.012;24.880;2022-12-10T03:09:23;62.07;;;29.20;;
5904;SDS011;2978;42.012;24.880;2022-12-10T03:11:59;63.03;;;31.13;;
5904;SDS011;2978;42.012;24.880;2022-12-10T03:14:31;61.00;;;30.33;;
5904;SDS011;2978;42.012;24.880;2022-12-10T03:16:59;61.23;;;30.97;;
5904;SDS011;2978;42.012;24.880;2022-12-10T03:19:33;65.37;;;29.43;;
5904;SDS011;2978;42.012;24.880;2022-12-10T03:22:02;73.57;;;33.37;;
5904;SDS011;2978;42.012;24.880;2022-12-10T03:24:29;64.50;;;33.00;;
5904;SDS011;2978;42.012;24.880;2022-12-10T03:26:57;83.93;;;34.40;;
5904;SDS011;2978;42.012;24.880;2022-12-10T03:29:24;77.63;;;31.97;;
5904;SDS011;2978;42.012;24.880;2022-12-10T03:31:55;75.00;;;34.20;;
5904;SDS011;2978;42.012;24.880;2022-12-10T03:34:22;77.17;;;33.93;;
5904;SDS011;2978;42.012;24.880;2022-12-10T03:36:48;72.70;;;33.07;;
5904;SDS011;2978;42.012;24.880;2022-12-10T03:39:16;111.47;;;35.60;;
5904;SDS011;2978;42.012;24.880;2022-12-10T03:41:42;108.80;;;37.83;;
5904;SDS011;2978;42.012;24.880;2022-12-10T03:44:07;117.17;;;37.83;;
5904;SDS011;2978;42.012;24.880;2022-12-10T03:46:32;99.20;;;34.03;;
5904;SDS011;2978;42.012;24.880;2022-12-10T03:48:59;80.03;;;32.57;;
5904;SDS011;2978;42.012;24.880;2022-12-10T03:51:25;99.27;;;34.83;;
5904;SDS011;2978;42.012;24.880;2022-12-10T03:53:50;100.13;;;35.43;;
5904;SDS011;2978;42.012;24.880;2022-12-10T03:56:19;77.70;;;32.80;;
5904;SDS011;2978;42.012;24.880;2022-12-10T03:58:45;103.10;;;34.87;;
5904;SDS011;2978;42.012;24.880;2022-12-10T04:01:11;71.20;;;31.43;;
5904;SDS011;2978;42.012;24.880;2022-12-10T04:03:37;65.73;;;34.10;;
5904;SDS011;2978;42.012;24.880;2022-12-10T04:06:05;72.00;;;31.30;;
5904;SDS011;2978;42.012;24.880;2022-12-10T04:08:32;58.27;;;29.20;;
5904;SDS011;2978;42.012;24.880;2022-12-10T04:11:02;66.57;;;30.67;;
5904;SDS011;2978;42.012;24.880;2022-12-10T04:13:32;69.10;;;31.57;;
5904;SDS011;2978;42.012;24.880;2022-12-10T04:16:17;81.40;;;33.07;;
5904;SDS011;2978;42.012;24.880;2022-12-10T04:18:52;71.43;;;33.60;;
5904;SDS011;2978;42.012;24.880;2022-12-10T04:21:18;58.70;;;30.93;;
5904;SDS011;2978;42.012;24.880;2022-12-10T04:24:02;69.17;;;30.70;;
5904;SDS011;2978;42.012;24.880;2022-12-10T04:26:47;70.20;;;31.70;;
5904;SDS011;2978;42.012;24.880;2022-12-10T04:29:19;68.73;;;32.10;;
5904;SDS011;2978;42.012;24.880;2022-12-10T04:31:45;61.77;;;31.73;;
5904;SDS011;2978;42.012;24.880;2022-12-10T04:34:10;67.40;;;31.13;;
5904;SDS011;2978;42.012;24.880;2022-12-10T04:36:36;70.10;;;32.07;;
5904;SDS011;2978;42.012;24.880;2022-12-10T04:39:02;61.50;;;32.10;;
5904;SDS011;2978;42.012;24.880;2022-12-10T04:41:28;69.40;;;32.60;;
5904;SDS011;2978;42.012;24.880;2022-12-10T04:43:53;62.37;;;31.80;;
5904;SDS011;2978;42.012;24.880;2022-12-10T04:46:19;66.03;;;31.37;;
5904;SDS011;2978;42.012;24.880;2022-12-10T04:48:45;59.23;;;28.93;;
5904;SDS011;2978;42.012;24.880;2022-12-10T04:51:10;81.00;;;41.30;;
5904;SDS011;2978;42.012;24.880;2022-12-10T04:53:35;69.87;;;31.03;;
5904;SDS011;2978;42.012;24.880;2022-12-10T04:56:01;68.57;;;32.93;;
5904;SDS011;2978;42.012;24.880;2022-12-10T04:58:27;59.10;;;29.77;;
5904;SDS011;2978;42.012;24.880;2022-12-10T05:01:06;62.50;;;32.40;;
5904;SDS011;2978;42.012;24.880;2022-12-10T05:03:33;55.00;;;29.93;;
5904;SDS011;2978;42.012;24.880;2022-12-10T05:06:02;52.20;;;29.07;;
5904;SDS011;2978;42.012;24.880;2022-12-10T05:08:33;63.13;;;30.17;;
5904;SDS011;2978;42.012;24.880;2022-12-10T05:11:06;53.77;;;30.23;;
5904;SDS011;2978;42.012;24.880;2022-12-10T05:13:34;61.07;;;31.07;;
5904;SDS011;2978;42.012;24.880;2022-12-10T05:16:03;56.90;;;30.73;;
5904;SDS011;2978;42.012;24.880;2022-12-10T05:18:30;57.33;;;31.03;;
5904;SDS011;2978;42.012;24.880;2022-12-10T05:21:03;62.87;;;31.03;;
5904;SDS011;2978;42.012;24.880;2022-12-10T05:23:30;62.57;;;32.20;;
5904;SDS011;2978;42.012;24.880;2022-12-10T05:28:24;57.23;;;31.63;;
5904;SDS011;2978;42.012;24.880;2022-12-10T05:30:51;64.33;;;33.10;;
5904;SDS011;2978;42.012;24.880;2022-12-10T05:33:16;59.87;;;32.33;;
5904;SDS011;2978;42.012;24.880;2022-12-10T05:35:42;71.37;;;32.70;;
5904;SDS011;2978;42.012;24.880;2022-12-10T05:38:07;79.73;;;36.50;;
5904;SDS011;2978;42.012;24.880;2022-12-10T05:40:35;75.73;;;35.77;;
5904;SDS011;2978;42.012;24.880;2022-12-10T05:43:02;73.70;;;34.10;;
5904;SDS011;2978;42.012;24.880;2022-12-10T05:45:27;78.67;;;37.20;;
5904;SDS011;2978;42.012;24.880;2022-12-10T05:47:53;66.73;;;34.17;;
5904;SDS011;2978;42.012;24.880;2022-12-10T05:50:18;73.37;;;37.00;;
5904;SDS011;2978;42.012;24.880;2022-12-10T05:52:44;72.07;;;35.90;;
5904;SDS011;2978;42.012;24.880;2022-12-10T05:55:09;78.10;;;35.20;;
5904;SDS011;2978;42.012;24.880;2022-12-10T05:57:37;72.77;;;35.83;;
5904;SDS011;2978;42.012;24.880;2022-12-10T06:00:04;63.40;;;35.30;;
5904;SDS011;2978;42.012;24.880;2022-12-10T06:02:32;78.33;;;35.60;;
5904;SDS011;2978;42.012;24.880;2022-12-10T06:04:58;62.87;;;33.20;;
5904;SDS011;2978;42.012;24.880;2022-12-10T06:07:23;61.80;;;32.80;;
5904;SDS011;2978;42.012;24.880;2022-12-10T06:09:49;61.33;;;34.10;;
5904;SDS011;2978;42.012;24.880;2022-12-10T06:12:14;70.70;;;35.10;;
5904;SDS011;2978;42.012;24.880;2022-12-10T06:14:39;66.53;;;34.40;;
5904;SDS011;2978;42.012;24.880;2022-12-10T06:17:05;66.53;;;34.87;;
5904;SDS011;2978;42.012;24.880;2022-12-10T06:19:30;68.50;;;39.40;;
5904;SDS011;2978;42.012;24.880;2022-12-10T06:21:55;65.90;;;35.07;;
5904;SDS011;2978;42.012;24.880;2022-12-10T06:24:23;67.53;;;34.43;;
5904;SDS011;2978;42.012;24.880;2022-12-10T06:26:48;65.67;;;34.90;;
5904;SDS011;2978;42.012;24.880;2022-12-10T06:29:13;70.10;;;37.27;;
5904;SDS011;2978;42.012;24.880;2022-12-10T06:31:39;69.00;;;38.30;;
5904;SDS011;2978;42.012;24.880;2022-12-10T06:34:05;67.10;;;37.00;;
5904;SDS011;2978;42.012;24.880;2022-12-10T06:36:30;67.77;;;36.53;;
5904;SDS011;2978;42.012;24.880;2022-12-10T06:38:56;69.97;;;35.60;;
5904;SDS011;2978;42.012;24.880;2022-12-10T06:41:21;74.30;;;36.93;;
5904;SDS011;2978;42.012;24.880;2022-12-10T06:43:47;69.07;;;34.90;;
5904;SDS011;2978;42.012;24.880;2022-12-10T06:46:14;77.17;;;36.77;;
5904;SDS011;2978;42.012;24.880;2022-12-10T06:48:42;73.90;;;40.07;;
5904;SDS011;2978;42.012;24.880;2022-12-10T06:51:09;80.03;;;37.60;;
5904;SDS011;2978;42.012;24.880;2022-12-10T06:53:36;72.47;;;37.50;;
5904;SDS011;2978;42.012;24.880;2022-12-10T06:56:03;79.30;;;37.30;;
5904;SDS011;2978;42.012;24.880;2022-12-10T06:58:30;89.63;;;39.20;;
5904;SDS011;2978;42.012;24.880;2022-12-10T07:01:06;74.37;;;37.53;;
5904;SDS011;2978;42.012;24.880;2022-12-10T07:03:49;79.70;;;41.27;;
5904;SDS011;2978;42.012;24.880;2022-12-10T07:06:16;89.40;;;42.27;;
5904;SDS011;2978;42.012;24.880;2022-12-10T07:08:43;94.43;;;44.90;;
5904;SDS011;2978;42.012;24.880;2022-12-10T07:11:10;88.13;;;43.53;;
5904;SDS011;2978;42.012;24.880;2022-12-10T07:13:37;90.83;;;44.20;;
5904;SDS011;2978;42.012;24.880;2022-12-10T07:16:10;93.23;;;45.63;;
5904;SDS011;2978;42.012;24.880;2022-12-10T07:18:39;86.83;;;41.87;;
5904;SDS011;2978;42.012;24.880;2022-12-10T07:21:17;89.63;;;41.23;;
5904;SDS011;2978;42.012;24.880;2022-12-10T07:23:49;76.63;;;39.00;;
5904;SDS011;2978;42.012;24.880;2022-12-10T07:26:16;86.93;;;41.33;;
5904;SDS011;2978;42.012;24.880;2022-12-10T07:28:42;91.77;;;40.57;;
5904;SDS011;2978;42.012;24.880;2022-12-10T07:31:08;75.60;;;36.97;;
5904;SDS011;2978;42.012;24.880;2022-12-10T07:33:35;75.33;;;36.70;;
5904;SDS011;2978;42.012;24.880;2022-12-10T07:36:05;72.97;;;36.90;;
5904;SDS011;2978;42.012;24.880;2022-12-10T07:38:31;55.40;;;33.53;;
5904;SDS011;2978;42.012;24.880;2022-12-10T07:40:57;62.00;;;33.27;;
5904;SDS011;2978;42.012;24.880;2022-12-10T07:43:22;83.10;;;34.70;;
5904;SDS011;2978;42.012;24.880;2022-12-10T07:45:48;54.87;;;29.53;;
5904;SDS011;2978;42.012;24.880;2022-12-10T07:48:13;57.57;;;30.43;;
5904;SDS011;2978;42.012;24.880;2022-12-10T07:50:39;65.77;;;32.50;;
5904;SDS011;2978;42.012;24.880;2022-12-10T07:53:05;53.00;;;31.40;;
5904;SDS011;2978;42.012;24.880;2022-12-10T07:55:31;49.30;;;28.70;;
5904;SDS011;2978;42.012;24.880;2022-12-10T07:57:57;49.53;;;29.43;;
5904;SDS011;2978;42.012;24.880;2022-12-10T08:00:22;50.30;;;27.13;;
5904;SDS011;2978;42.012;24.880;2022-12-10T08:02:47;51.23;;;30.30;;
5904;SDS011;2978;42.012;24.880;2022-12-10T08:05:13;53.90;;;32.10;;
5904;SDS011;2978;42.012;24.880;2022-12-10T08:07:38;55.97;;;30.33;;
5904;SDS011;2978;42.012;24.880;2022-12-10T08:10:04;45.60;;;27.83;;
5904;SDS011;2978;42.012;24.880;2022-12-10T08:12:30;56.67;;;30.90;;
5904;SDS011;2978;42.012;24.880;2022-12-10T08:14:55;54.77;;;25.73;;
5904;SDS011;2978;42.012;24.880;2022-12-10T08:17:20;40.77;;;24.20;;
5904;SDS011;2978;42.012;24.880;2022-12-10T08:19:46;44.10;;;26.03;;
5904;SDS011;2978;42.012;24.880;2022-12-10T08:22:11;45.73;;;25.57;;
5904;SDS011;2978;42.012;24.880;2022-12-10T08:24:41;40.47;;;23.48;;
5904;SDS011;2978;42.012;24.880;2022-12-10T08:27:07;45.10;;;26.87;;
5904;SDS011;2978;42.012;24.880;2022-12-10T08:29:32;43.60;;;26.57;;
5904;SDS011;2978;42.012;24.880;2022-12-10T08:31:57;49.50;;;26.70;;
5904;SDS011;2978;42.012;24.880;2022-12-10T08:34:23;54.70;;;29.40;;
5904;SDS011;2978;42.012;24.880;2022-12-10T08:36:49;58.13;;;30.03;;
5904;SDS011;2978;42.012;24.880;2022-12-10T08:42:36;48.10;;;27.60;;
5904;SDS011;2978;42.012;24.880;2022-12-10T08:45:02;37.73;;;23.90;;
5904;SDS011;2978;42.012;24.880;2022-12-10T08:47:27;45.93;;;26.07;;
5904;SDS011;2978;42.012;24.880;2022-12-10T08:49:53;42.67;;;25.70;;
5904;SDS011;2978;42.012;24.880;2022-12-10T08:52:18;42.70;;;25.80;;
5904;SDS011;2978;42.012;24.880;2022-12-10T08:54:44;64.27;;;31.47;;
5904;SDS011;2978;42.012;24.880;2022-12-10T08:57:09;52.67;;;29.93;;
5904;SDS011;2978;42.012;24.880;2022-12-10T08:59:34;44.63;;;27.30;;
5904;SDS011;2978;42.012;24.880;2022-12-10T09:02:00;43.00;;;27.77;;
5904;SDS011;2978;42.012;24.880;2022-12-10T09:04:25;45.87;;;26.60;;
5904;SDS011;2978;42.012;24.880;2022-12-10T09:06:51;43.13;;;27.83;;
5904;SDS011;2978;42.012;24.880;2022-12-10T09:09:17;48.40;;;26.73;;
5904;SDS011;2978;42.012;24.880;2022-12-10T09:11:43;54.93;;;31.83;;
5904;SDS011;2978;42.012;24.880;2022-12-10T09:14:10;48.90;;;27.33;;
5904;SDS011;2978;42.012;24.880;2022-12-10T09:16:36;48.40;;;30.50;;
5904;SDS011;2978;42.012;24.880;2022-12-10T09:19:04;58.80;;;31.83;;
5904;SDS011;2978;42.012;24.880;2022-12-10T09:21:30;53.47;;;30.27;;
5904;SDS011;2978;42.012;24.880;2022-12-10T09:23:55;69.00;;;34.50;;
5904;SDS011;2978;42.012;24.880;2022-12-10T09:26:21;50.67;;;33.57;;
5904;SDS011;2978;42.012;24.880;2022-12-10T09:28:47;53.83;;;34.00;;
5904;SDS011;2978;42.012;24.880;2022-12-10T09:31:14;63.80;;;36.70;;
5904;SDS011;2978;42.012;24.880;2022-12-10T09:33:42;62.33;;;35.67;;
5904;SDS011;2978;42.012;24.880;2022-12-10T09:36:08;60.43;;;34.30;;
5904;SDS011;2978;42.012;24.880;2022-12-10T09:38:35;57.70;;;34.53;;
5904;SDS011;2978;42.012;24.880;2022-12-10T09:41:13;58.50;;;34.73;;
5904;SDS011;2978;42.012;24.880;2022-12-10T09:44:01;58.80;;;34.87;;
5904;SDS011;2978;42.012;24.880;2022-12-10T09:46:43;50.00;;;33.00;;
5904;SDS011;2978;42.012;24.880;2022-12-10T09:51:49;60.13;;;34.40;;
5904;SDS011;2978;42.012;24.880;2022-12-10T09:54:22;57.33;;;31.70;;
5904;SDS011;2978;42.012;24.880;2022-12-10T09:56:48;64.37;;;33.83;;
5904;SDS011;2978;42.012;24.880;2022-12-10T10:04:48;57.20;;;33.20;;
5904;SDS011;2978;42.012;24.880;2022-12-10T10:07:22;70.57;;;39.30;;
5904;SDS011;2978;42.012;24.880;2022-12-10T10:09:50;59.13;;;36.20;;
5904;SDS011;2978;42.012;24.880;2022-12-10T10:12:21;67.10;;;37.43;;
5904;SDS011;2978;42.012;24.880;2022-12-10T10:14:47;54.97;;;34.13;;
5904;SDS011;2978;42.012;24.880;2022-12-10T10:17:16;69.10;;;34.63;;
5904;SDS011;2978;42.012;24.880;2022-12-10T10:19:46;49.83;;;31.80;;
5904;SDS011;2978;42.012;24.880;2022-12-10T10:22:11;50.50;;;29.00;;
5904;SDS011;2978;42.012;24.880;2022-12-10T10:24:39;55.93;;;30.13;;
5904;SDS011;2978;42.012;24.880;2022-12-10T10:27:14;55.93;;;30.40;;
5904;SDS011;2978;42.012;24.880;2022-12-10T10:29:41;46.67;;;26.30;;
5904;SDS011;2978;42.012;24.880;2022-12-10T10:32:18;42.80;;;25.20;;
5904;SDS011;2978;42.012;24.880;2022-12-10T10:34:54;43.20;;;26.47;;
5904;SDS011;2978;42.012;24.880;2022-12-10T10:37:28;45.00;;;26.20;;
5904;SDS011;2978;42.012;24.880;2022-12-10T10:39:56;35.33;;;24.10;;
5904;SDS011;2978;42.012;24.880;2022-12-10T10:45:10;45.53;;;29.90;;
5904;SDS011;2978;42.012;24.880;2022-12-10T10:48:07;55.37;;;25.80;;
5904;SDS011;2978;42.012;24.880;2022-12-10T10:50:41;40.33;;;24.00;;
5904;SDS011;2978;42.012;24.880;2022-12-10T10:53:35;42.77;;;24.03;;
5904;SDS011;2978;42.012;24.880;2022-12-10T10:56:07;40.30;;;22.33;;
5904;SDS011;2978;42.012;24.880;2022-12-10T10:58:35;37.00;;;23.17;;
5904;SDS011;2978;42.012;24.880;2022-12-10T11:01:10;38.67;;;23.43;;
5904;SDS011;2978;42.012;24.880;2022-12-10T11:06:48;38.87;;;23.87;;
5904;SDS011;2978;42.012;24.880;2022-12-10T11:09:27;34.23;;;23.20;;
5904;SDS011;2978;42.012;24.880;2022-12-10T11:11:58;39.37;;;25.13;;
5904;SDS011;2978;42.012;24.880;2022-12-10T11:14:33;41.07;;;25.07;;
5904;SDS011;2978;42.012;24.880;2022-12-10T11:19:35;45.93;;;28.10;;
5904;SDS011;2978;42.012;24.880;2022-12-10T11:22:15;40.00;;;25.50;;
5904;SDS011;2978;42.012;24.880;2022-12-10T11:24:51;42.60;;;25.70;;
5904;SDS011;2978;42.012;24.880;2022-12-10T11:39:17;36.23;;;24.10;;
5904;SDS011;2978;42.012;24.880;2022-12-10T11:42:11;39.33;;;24.30;;
5904;SDS011;2978;42.012;24.880;2022-12-10T11:45:06;41.63;;;26.83;;
5904;SDS011;2978;42.012;24.880;2022-12-10T11:50:26;47.13;;;28.87;;
5904;SDS011;2978;42.012;24.880;2022-12-10T12:04:17;40.60;;;24.90;;
5904;SDS011;2978;42.012;24.880;2022-12-10T12:12:55;46.73;;;26.47;;
5904;SDS011;2978;42.012;24.880;2022-12-10T12:18:23;60.87;;;28.73;;
5904;SDS011;2978;42.012;24.880;2022-12-10T12:21:03;52.67;;;28.70;;
5904;SDS011;2978;42.012;24.880;2022-12-10T12:26:10;59.43;;;38.23;;
5904;SDS011;2978;42.012;24.880;2022-12-10T12:28:43;56.83;;;32.20;;
5904;SDS011;2978;42.012;24.880;2022-12-10T12:31:14;50.67;;;32.17;;
5904;SDS011;2978;42.012;24.880;2022-12-10T12:36:39;50.30;;;32.80;;
5904;SDS011;2978;42.012;24.880;2022-12-10T12:39:27;50.70;;;34.53;;
5904;SDS011;2978;42.012;24.880;2022-12-10T12:45:03;91.60;;;45.10;;
5904;SDS011;2978;42.012;24.880;2022-12-10T12:47:47;49.07;;;31.80;;
5904;SDS011;2978;42.012;24.880;2022-12-10T12:50:23;42.30;;;29.30;;
5904;SDS011;2978;42.012;24.880;2022-12-10T12:52:57;45.10;;;30.73;;
5904;SDS011;2978;42.012;24.880;2022-12-10T12:58:20;67.10;;;32.60;;
5904;SDS011;2978;42.012;24.880;2022-12-10T13:00:50;86.03;;;30.93;;
5904;SDS011;2978;42.012;24.880;2022-12-10T13:14:29;71.00;;;26.40;;
5904;SDS011;2978;42.012;24.880;2022-12-10T13:17:00;60.07;;;27.03;;
5904;SDS011;2978;42.012;24.880;2022-12-10T13:19:32;207.60;;;35.40;;
5904;SDS011;2978;42.012;24.880;2022-12-10T13:29:42;43.33;;;26.20;;
5904;SDS011;2978;42.012;24.880;2022-12-10T13:32:23;88.77;;;29.30;;
5904;SDS011;2978;42.012;24.880;2022-12-10T13:37:33;50.60;;;29.27;;
5904;SDS011;2978;42.012;24.880;2022-12-10T13:42:36;160.57;;;40.90;;
5904;SDS011;2978;42.012;24.880;2022-12-10T13:45:28;83.13;;;37.07;;
5904;SDS011;2978;42.012;24.880;2022-12-10T13:59:17;89.13;;;39.50;;
5904;SDS011;2978;42.012;24.880;2022-12-10T14:07:11;73.60;;;37.23;;
5904;SDS011;2978;42.012;24.880;2022-12-10T14:09:48;89.33;;;48.67;;
5904;SDS011;2978;42.012;24.880;2022-12-10T14:12:17;95.50;;;49.00;;
5904;SDS011;2978;42.012;24.880;2022-12-10T14:14:50;88.33;;;51.07;;
5904;SDS011;2978;42.012;24.880;2022-12-10T14:17:22;103.77;;;61.07;;
5904;SDS011;2978;42.012;24.880;2022-12-10T14:19:55;109.90;;;63.73;;
5904;SDS011;2978;42.012;24.880;2022-12-10T14:22:43;123.60;;;72.10;;
5904;SDS011;2978;42.012;24.880;2022-12-10T14:25:14;119.40;;;67.27;;
5904;SDS011;2978;42.012;24.880;2022-12-10T14:27:43;98.07;;;55.77;;
5904;SDS011;2978;42.012;24.880;2022-12-10T14:30:29;110.87;;;59.27;;
5904;SDS011;2978;42.012;24.880;2022-12-10T14:32:55;99.70;;;59.57;;
5904;SDS011;2978;42.012;24.880;2022-12-10T14:35:24;110.63;;;62.40;;
5904;SDS011;2978;42.012;24.880;2022-12-10T14:37:52;123.77;;;67.30;;
5904;SDS011;2978;42.012;24.880;2022-12-10T14:40:31;108.13;;;66.00;;
5904;SDS011;2978;42.012;24.880;2022-12-10T14:43:06;128.70;;;71.00;;
5904;SDS011;2978;42.012;24.880;2022-12-10T14:48:27;136.93;;;76.93;;
5904;SDS011;2978;42.012;24.880;2022-12-10T14:50:53;138.33;;;78.03;;
5904;SDS011;2978;42.012;24.880;2022-12-10T14:53:24;135.43;;;78.80;;
5904;SDS011;2978;42.012;24.880;2022-12-10T14:56:04;135.17;;;80.90;;
5904;SDS011;2978;42.012;24.880;2022-12-10T14:58:38;160.43;;;78.53;;
5904;SDS011;2978;42.012;24.880;2022-12-10T15:01:16;97.60;;;61.70;;
5904;SDS011;2978;42.012;24.880;2022-12-10T15:04:05;99.73;;;60.27;;
5904;SDS011;2978;42.012;24.880;2022-12-10T15:06:37;101.30;;;59.30;;
5904;SDS011;2978;42.012;24.880;2022-12-10T15:09:03;100.20;;;63.00;;
5904;SDS011;2978;42.012;24.880;2022-12-10T15:11:30;136.57;;;79.93;;
5904;SDS011;2978;42.012;24.880;2022-12-10T15:14:00;198.10;;;108.30;;
5904;SDS011;2978;42.012;24.880;2022-12-10T15:16:48;172.90;;;104.20;;
5904;SDS011;2978;42.012;24.880;2022-12-10T15:19:17;155.70;;;91.13;;
5904;SDS011;2978;42.012;24.880;2022-12-10T15:21:45;120.90;;;71.80;;
5904;SDS011;2978;42.012;24.880;2022-12-10T15:26:47;123.77;;;80.90;;
5904;SDS011;2978;42.012;24.880;2022-12-10T15:31:50;65.73;;;39.40;;
5904;SDS011;2978;42.012;24.880;2022-12-10T15:34:25;66.93;;;41.40;;
5904;SDS011;2978;42.012;24.880;2022-12-10T15:36:54;59.30;;;37.57;;
5904;SDS011;2978;42.012;24.880;2022-12-10T15:39:32;66.13;;;39.60;;
5904;SDS011;2978;42.012;24.880;2022-12-10T15:42:08;64.87;;;39.60;;
5904;SDS011;2978;42.012;24.880;2022-12-10T15:44:37;60.97;;;38.17;;
5904;SDS011;2978;42.012;24.880;2022-12-10T15:47:20;72.23;;;41.00;;
5904;SDS011;2978;42.012;24.880;2022-12-10T15:49:48;61.63;;;37.60;;
5904;SDS011;2978;42.012;24.880;2022-12-10T15:52:16;64.03;;;39.27;;
5904;SDS011;2978;42.012;24.880;2022-12-10T15:54:47;56.00;;;36.10;;
5904;SDS011;2978;42.012;24.880;2022-12-10T15:59:44;57.77;;;37.03;;
5904;SDS011;2978;42.012;24.880;2022-12-10T16:04:59;107.77;;;53.87;;
5904;SDS011;2978;42.012;24.880;2022-12-10T16:07:24;90.83;;;48.83;;
5904;SDS011;2978;42.012;24.880;2022-12-10T16:09:50;91.00;;;56.03;;
5904;SDS011;2978;42.012;24.880;2022-12-10T16:12:16;101.17;;;59.10;;
5904;SDS011;2978;42.012;24.880;2022-12-10T16:14:49;60.80;;;40.60;;
5904;SDS011;2978;42.012;24.880;2022-12-10T16:17:19;69.17;;;41.30;;
5904;SDS011;2978;42.012;24.880;2022-12-10T16:19:44;73.03;;;44.10;;
5904;SDS011;2978;42.012;24.880;2022-12-10T16:22:10;64.00;;;38.70;;
5904;SDS011;2978;42.012;24.880;2022-12-10T16:24:35;68.23;;;39.67;;
5904;SDS011;2978;42.012;24.880;2022-12-10T16:27:01;67.40;;;39.93;;
5904;SDS011;2978;42.012;24.880;2022-12-10T16:29:26;89.47;;;49.87;;
5904;SDS011;2978;42.012;24.880;2022-12-10T16:31:52;89.40;;;58.10;;
5904;SDS011;2978;42.012;24.880;2022-12-10T16:34:17;116.87;;;69.77;;
5904;SDS011;2978;42.012;24.880;2022-12-10T16:36:43;90.80;;;53.37;;
5904;SDS011;2978;42.012;24.880;2022-12-10T16:39:08;81.07;;;48.57;;
5904;SDS011;2978;42.012;24.880;2022-12-10T16:41:34;88.83;;;51.47;;
5904;SDS011;2978;42.012;24.880;2022-12-10T16:44:00;113.30;;;62.13;;
5904;SDS011;2978;42.012;24.880;2022-12-10T16:46:25;60.37;;;36.70;;
5904;SDS011;2978;42.012;24.880;2022-12-10T16:48:50;55.80;;;33.67;;
5904;SDS011;2978;42.012;24.880;2022-12-10T16:53:57;59.30;;;36.37;;
5904;SDS011;2978;42.012;24.880;2022-12-10T16:56:23;60.73;;;36.90;;
5904;SDS011;2978;42.012;24.880;2022-12-10T16:58:48;57.33;;;34.80;;
5904;SDS011;2978;42.012;24.880;2022-12-10T17:01:24;54.40;;;34.30;;
5904;SDS011;2978;42.012;24.880;2022-12-10T17:03:54;51.03;;;31.53;;
5904;SDS011;2978;42.012;24.880;2022-12-10T17:06:20;47.83;;;31.20;;
5904;SDS011;2978;42.012;24.880;2022-12-10T17:08:47;49.27;;;31.03;;
5904;SDS011;2978;42.012;24.880;2022-12-10T17:14:00;51.90;;;34.63;;
5904;SDS011;2978;42.012;24.880;2022-12-10T17:16:26;59.40;;;35.90;;